Time;durP1;ratioP1;P1;durP2;ratioP2;P2;SDS_P1;SDS_P2;PMS_P1;PMS_P2;Temp;Humidity;BMP_temperature;BMP_pressure;BME280_temperature;BME280_humidity;BME280_pressure;Samples;Min_cycle;Max_cycle;Signal;HPM_P1;HPM_P2
2023/08/25 00:05:07;;;;;;;7.53;2.90;;;;;;;24.18;48.20;97431.19;10538776;28;20044;-66
2023/08/25 00:10:29;;;;;;;7.40;3.33;;;;;;;24.06;48.10;97409.00;10539005;28;20063;-68
2023/08/25 00:15:50;;;;;;;5.70;2.95;;;;;;;23.97;47.62;97391.09;10545055;28;20074;-67
2023/08/25 00:21:11;;;;;;;5.57;2.80;;;;;;;23.94;47.21;97375.41;10531835;28;20076;-66
2023/08/25 00:26:32;;;;;;;9.63;2.90;;;;;;;23.89;47.24;97365.38;10546409;28;20170;-66
2023/08/25 00:31:52;;;;;;;7.53;2.60;;;;;;;23.83;47.52;97359.59;10517025;28;20107;-67
2023/08/25 00:37:13;;;;;;;4.47;2.63;;;;;;;23.76;48.18;97366.69;10530718;28;20115;-66
2023/08/25 00:42:34;;;;;;;6.75;3.08;;;;;;;23.70;49.21;97370.19;10516545;28;20124;-67
2023/08/25 00:47:55;;;;;;;7.30;2.85;;;;;;;23.59;50.23;97382.16;10530367;28;20048;-66
2023/08/25 00:53:16;;;;;;;5.82;2.60;;;;;;;23.38;51.12;97375.50;10516260;28;20124;-66
2023/08/25 00:58:36;;;;;;;5.53;2.58;;;;;;;23.22;52.53;97363.94;10529972;28;20040;-66
2023/08/25 01:03:57;;;;;;;6.93;2.20;;;;;;;23.06;54.61;97364.44;10501729;28;20166;-66
2023/08/25 01:09:18;;;;;;;9.43;2.20;;;;;;;22.89;56.16;97371.34;10529668;28;20481;-66
2023/08/25 01:15:00;;;;;;;6.22;2.33;;;;;;;22.73;58.17;97369.69;10515219;28;20134;-67
2023/08/25 01:20:22;;;;;;;;;;;;;;;22.63;59.88;97374.53;10529905;28;20075;-67
2023/08/25 01:25:43;;;;;;;5.22;1.77;;;;;;;22.53;60.02;97358.03;10543681;28;20011;-66
2023/08/25 01:31:04;;;;;;;7.32;2.53;;;;;;;22.41;61.06;97363.53;10514838;28;20116;-66
2023/08/25 01:36:49;;;;;;;5.25;2.40;;;;;;;22.29;62.88;97369.75;10543584;28;20037;-66
2023/08/25 01:42:10;;;;;;;6.78;2.45;;;;;;;22.32;62.66;97382.59;10529320;28;20115;-67
2023/08/25 01:47:30;;;;;;;4.90;2.15;;;;;;;22.32;63.21;97385.44;10514136;28;20124;-67
2023/08/25 01:52:51;;;;;;;5.88;2.10;;;;;;;22.40;63.61;97396.22;10528100;28;20115;-66
2023/08/25 01:58:13;;;;;;;6.15;2.42;;;;;;;22.43;63.41;97411.91;10527481;28;20115;-66
2023/08/25 02:03:34;;;;;;;5.18;2.30;;;;;;;22.50;63.14;97425.53;10499809;28;20043;-67
2023/08/25 02:08:55;;;;;;;3.13;1.70;;;;;;;22.53;63.04;97409.94;10527043;28;20116;-66
2023/08/25 02:14:16;;;;;;;7.78;2.08;;;;;;;22.51;62.98;97418.44;10527027;28;20123;-66
2023/08/25 02:19:37;;;;;;;6.00;2.40;;;;;;;22.50;63.23;97414.16;10526831;28;20143;-67
2023/08/25 02:24:58;;;;;;;4.88;2.00;;;;;;;22.44;63.54;97408.38;10512570;28;20530;-67
2023/08/25 02:30:19;;;;;;;7.32;2.63;;;;;;;22.27;64.03;97396.03;10526563;28;20169;-66
2023/08/25 02:35:40;;;;;;;6.75;2.03;;;;;;;22.12;64.87;97396.50;10525329;28;20124;-67
2023/08/25 02:41:00;;;;;;;7.68;2.40;;;;;;;22.02;65.08;97376.41;10525997;28;20115;-67
2023/08/25 02:46:21;;;;;;;6.07;2.50;;;;;;;21.90;65.36;97374.06;10540895;28;20075;-67
2023/08/25 02:51:42;;;;;;;10.10;2.58;;;;;;;21.85;65.87;97375.41;10525637;28;20070;-67
2023/08/25 02:57:03;;;;;;;6.03;2.17;;;;;;;21.79;66.24;97373.16;10540693;28;20119;-67
2023/08/25 03:02:24;;;;;;;7.78;2.45;;;;;;;21.79;66.41;97363.91;10525231;28;20115;-67
2023/08/25 03:07:45;;;;;;;5.78;2.58;;;;;;;21.63;67.18;97367.22;10524959;28;20048;-67
2023/08/25 03:13:06;;;;;;;8.25;2.85;;;;;;;21.48;68.54;97345.63;10524648;28;20112;-67
2023/08/25 03:18:28;;;;;;;6.37;2.20;;;;;;;21.43;68.94;97350.53;10524619;28;20123;-67
2023/08/25 03:23:49;;;;;;;4.30;2.47;;;;;;;21.37;69.84;97348.28;10524390;28;20119;-67
2023/08/25 03:29:12;;;;;;;5.38;2.17;;;;;;;21.36;69.99;97349.69;10524901;28;20455;-66
2023/08/25 03:34:34;;;;;;;4.53;2.23;;;;;;;21.45;70.02;97349.84;10510757;28;20124;-67
2023/08/25 03:39:55;;;;;;;8.02;2.17;;;;;;;21.49;69.95;97344.22;10523718;28;20123;-66
2023/08/25 03:45:19;;;;;;;6.90;2.10;;;;;;;21.53;70.34;97339.34;10539252;28;20046;-66
2023/08/25 03:50:45;;;;;;;5.15;2.50;;;;;;;21.50;69.86;97342.81;10516281;28;20048;-66
2023/08/25 03:56:07;;;;;;;4.28;2.08;;;;;;;21.39;69.97;97330.56;10532379;28;20165;-66
2023/08/25 04:01:27;;;;;;;3.95;2.05;;;;;;;21.37;70.04;97328.41;10532192;28;20147;-66
2023/08/25 04:06:49;;;;;;;5.50;1.83;;;;;;;21.40;70.30;97321.34;10518243;28;20409;-66
2023/08/25 04:12:10;;;;;;;7.43;2.35;;;;;;;21.36;70.62;97321.28;10547026;28;20174;-66
2023/08/25 04:17:34;;;;;;;4.57;1.92;;;;;;;21.38;70.88;97318.47;10531240;28;20067;-67
2023/08/25 04:22:55;;;;;;;7.00;2.15;;;;;;;21.40;70.81;97307.16;10531083;28;20127;-67
2023/08/25 04:28:15;;;;;;;4.30;2.20;;;;;;;21.45;70.37;97307.97;10530662;28;20140;-66
2023/08/25 04:33:36;;;;;;;2.95;1.35;;;;;;;21.54;70.38;97308.84;10530925;28;20120;-66
2023/08/25 04:38:57;;;;;;;3.95;1.80;;;;;;;21.66;70.35;97304.06;10530423;28;20040;-66
2023/08/25 04:44:18;;;;;;;3.20;1.63;;;;;;;21.79;70.31;97296.47;10530624;28;20132;-67
2023/08/25 04:49:40;;;;;;;4.70;1.58;;;;;;;21.98;69.54;97292.50;10530528;28;20070;-66
2023/08/25 04:55:04;;;;;;;5.22;1.90;;;;;;;22.06;69.41;97297.59;10530071;28;20066;-67
2023/08/25 05:00:25;;;;;;;6.40;2.03;;;;;;;22.38;69.65;97296.66;10500888;28;20060;-66
2023/08/25 05:05:47;;;;;;;4.57;1.58;;;;;;;22.69;69.01;97297.81;10515611;28;20036;-67
2023/08/25 05:11:11;;;;;;;4.78;1.90;;;;;;;23.50;67.95;97293.03;10515760;28;20076;-66
2023/08/25 05:16:33;;;;;;;3.70;1.30;;;;;;;24.05;66.17;97301.38;10515593;28;20040;-67
2023/08/25 05:21:57;;;;;;;4.43;1.40;;;;;;;24.90;64.93;97316.16;10515438;28;20056;-67
2023/08/25 05:27:18;;;;;;;6.63;0.98;;;;;;;25.92;61.36;97299.97;10544101;28;20068;-67
2023/08/25 05:32:40;;;;;;;3.03;1.23;;;;;;;27.59;58.77;97299.44;10543885;28;20044;-67
2023/08/25 05:38:19;;;;;;;8.00;1.00;;;;;;;31.74;50.11;97301.25;10543606;28;20071;-68
2023/08/25 05:43:40;;;;;;;3.38;0.88;;;;;;;33.51;42.96;97302.31;10514307;28;20115;-69
2023/08/25 05:49:01;;;;;;;5.22;1.00;;;;;;;33.26;40.89;97299.44;10543173;28;20143;-69
2023/08/25 05:54:22;;;;;;;2.38;0.80;;;;;;;34.49;37.05;97304.25;10528263;28;20162;-70
2023/08/25 05:59:42;;;;;;;1.70;0.70;;;;;;;36.08;33.42;97328.00;10513438;28;20064;-69
2023/08/25 06:05:03;;;;;;;3.63;1.00;;;;;;;35.64;31.67;97337.00;10542773;28;20044;-70
2023/08/25 06:10:24;;;;;;;3.65;0.73;;;;;;;33.55;33.54;97333.31;10527073;28;20358;-70
2023/08/25 06:15:45;;;;;;;4.18;0.60;;;;;;;31.81;34.60;97337.19;10527707;28;20071;-70
2023/08/25 06:21:06;;;;;;;3.42;1.00;;;;;;;30.61;38.89;97339.63;10541905;28;20600;-69
2023/08/25 06:26:26;;;;;;;5.23;1.00;;;;;;;36.75;33.56;97319.38;10541774;28;20123;-70
2023/08/25 06:31:47;;;;;;;;;;;;;;;38.16;26.52;97336.88;10541885;28;20080;-70
2023/08/25 06:37:08;;;;;;;;;;;;;;;37.31;29.54;97326.38;10541631;28;19920;-69
2023/08/25 06:42:28;;;;;;;7.55;0.88;;;;;;;40.07;25.58;97334.13;10540889;28;20448;-70
2023/08/25 06:47:50;;;;;;;2.50;0.90;;;;;;;40.55;24.04;97331.31;10540803;28;20119;-70
2023/08/25 06:53:12;;;;;;;2.72;0.70;;;;;;;45.29;20.29;97335.38;10540716;28;20174;-71
2023/08/25 06:58:33;;;;;;;3.22;0.80;;;;;;;44.40;18.70;97326.03;10540405;28;20529;-72
2023/08/25 07:03:53;;;;;;;6.40;0.80;;;;;;;40.70;21.94;97336.28;10540583;28;20465;-71
2023/08/25 07:09:14;;;;;;;4.60;0.80;;;;;;;41.50;21.82;97335.75;10525028;28;20075;-71
2023/08/25 07:14:35;;;;;;;3.35;0.77;;;;;;;41.53;22.07;97339.97;10510531;28;20123;-71
2023/08/25 07:19:56;;;;;;;2.78;0.55;;;;;;;44.89;18.63;97331.13;10539965;28;20048;-72
2023/08/25 07:25:17;;;;;;;3.08;0.80;;;;;;;41.57;20.46;97336.06;10539034;28;20116;-71
2023/08/25 07:30:38;;;;;;;3.55;0.85;;;;;;;44.09;20.38;97332.75;10539584;28;20114;-70
2023/08/25 07:35:58;;;;;;;4.53;0.70;;;;;;;44.41;18.18;97335.53;10539702;28;20455;-71
2023/08/25 07:41:21;;;;;;;3.15;0.60;;;;;;;46.04;17.38;97347.00;10539358;28;20091;-72
2023/08/25 07:46:43;;;;;;;1.27;0.50;;;;;;;47.05;16.89;97343.66;10539571;28;20072;-72
2023/08/25 07:52:03;;;;;;;1.75;0.50;;;;;;;52.26;13.48;97344.94;10539478;28;20090;-71
2023/08/25 07:57:24;;;;;;;2.75;0.70;;;;;;;55.32;11.54;97328.34;10538998;28;20068;-72
2023/08/25 08:02:46;;;;;;;2.80;0.43;;;;;;;54.85;9.50;97331.03;10523654;28;20048;-72
2023/08/25 08:08:09;;;;;;;5.15;0.55;;;;;;;54.59;9.67;97323.59;10509775;28;20473;-72
2023/08/25 08:13:30;;;;;;;5.05;0.63;;;;;;;55.13;9.79;97320.91;10524329;28;20064;-72
2023/08/25 08:18:51;;;;;;;1.85;0.60;;;;;;;55.12;9.39;97314.25;10538406;28;20190;-72
2023/08/25 08:24:12;;;;;;;3.92;0.73;;;;;;;55.23;9.41;97316.00;10538962;28;20032;-72
2023/08/25 08:29:33;;;;;;;1.88;0.60;;;;;;;56.53;8.80;97338.66;10538182;28;20154;-73
2023/08/25 08:34:53;;;;;;;2.47;0.70;;;;;;;55.13;9.38;97324.59;10541393;28;20468;-72
2023/08/25 08:40:15;;;;;;;1.88;0.80;;;;;;;57.83;8.19;97330.06;10530812;28;20040;-71
2023/08/25 08:45:37;;;;;;;3.13;0.88;;;;;;;57.60;7.84;97335.31;10531000;28;20379;-73
2023/08/25 08:50:58;;;;;;;2.55;0.70;;;;;;;59.46;7.68;97343.88;10530381;28;20048;-73
2023/08/25 08:56:18;;;;;;;3.88;1.20;;;;;;;60.42;6.77;97336.94;10530461;28;20071;-72
2023/08/25 09:01:39;;;;;;;2.00;1.08;;;;;;;60.88;6.21;97326.47;10529989;28;20075;-72
2023/08/25 09:07:00;;;;;;;3.10;1.10;;;;;;;59.43;6.69;97336.78;10529975;28;20048;-72
2023/08/25 09:12:21;;;;;;;3.80;1.10;;;;;;;58.66;7.29;97330.09;10502390;28;20055;-72
2023/08/25 09:17:42;;;;;;;4.20;1.10;;;;;;;59.95;6.37;97319.63;10529525;28;20547;-72
2023/08/25 09:23:04;;;;;;;1.92;1.25;;;;;;;60.12;6.64;97308.91;10544437;28;20078;-72
2023/08/25 09:28:27;;;;;;;2.47;1.45;;;;;;;60.76;6.13;97307.16;10544114;28;20059;-72
2023/08/25 09:33:49;;;;;;;4.15;1.80;;;;;;;59.54;6.12;97313.31;10543932;28;20047;-73
2023/08/25 09:39:11;;;;;;;5.05;1.50;;;;;;;59.39;5.89;97316.31;10514814;28;20097;-73
2023/08/25 09:44:32;;;;;;;3.15;1.40;;;;;;;59.97;6.33;97316.31;10543564;28;20101;-72
2023/08/25 09:49:53;;;;;;;2.50;1.48;;;;;;;59.38;6.00;97309.59;10543053;28;20059;-72
2023/08/25 09:55:14;;;;;;;3.67;1.85;;;;;;;59.91;6.00;97314.16;10543006;28;20097;-72
2023/08/25 10:00:39;;;;;;;2.57;1.50;;;;;;;59.68;5.72;97331.03;10528083;28;20052;-72
2023/08/25 10:06:00;;;;;;;3.90;1.50;;;;;;;59.28;6.06;97320.06;10542500;28;20062;-73
2023/08/25 10:11:21;;;;;;;2.42;1.55;;;;;;;59.87;5.73;97320.78;10527246;28;20048;-72
2023/08/25 10:16:49;;;;;;;2.03;1.40;;;;;;;57.87;5.82;97324.19;10513526;28;20043;-73
2023/08/25 10:22:10;;;;;;;2.47;1.35;;;;;;;57.90;6.35;97313.25;10527661;28;20048;-73
2023/08/25 10:27:31;;;;;;;1.63;0.90;;;;;;;57.60;6.99;97321.00;10542499;28;20074;-73
2023/08/25 10:32:58;;;;;;;2.33;0.90;;;;;;;58.18;6.14;97317.09;10513025;28;20113;-73
2023/08/25 10:38:18;;;;;;;2.25;0.82;;;;;;;58.27;6.15;97316.66;10512670;28;20051;-73
2023/08/25 10:43:41;;;;;;;0.98;0.57;;;;;;;57.18;6.70;97308.66;10526441;28;20044;-72
2023/08/25 10:49:03;;;;;;;2.08;0.70;;;;;;;55.40;7.96;97307.09;10540859;28;20067;-72
2023/08/25 10:54:24;;;;;;;2.30;0.60;;;;;;;57.10;6.93;97316.34;10526036;28;20394;-73
2023/08/25 10:59:50;;;;;;;2.78;0.70;;;;;;;58.04;6.60;97316.00;10510952;28;20505;-72
2023/08/25 11:05:28;;;;;;;1.90;0.60;;;;;;;57.10;7.08;97316.34;10525442;28;20047;-72
2023/08/25 11:11:08;;;;;;;2.33;0.65;;;;;;;55.43;8.07;97316.50;10539861;28;20091;-72
2023/08/25 11:16:29;;;;;;;2.35;0.70;;;;;;;52.60;9.52;97325.56;10540112;28;20101;-73
2023/08/25 11:21:59;;;;;;;3.60;0.50;;;;;;;52.32;9.62;97323.44;10539911;28;20406;-73
2023/08/25 11:27:22;;;;;;;3.22;0.80;;;;;;;50.24;10.65;97308.81;10539481;28;20115;-72
2023/08/25 11:32:46;;;;;;;2.42;0.70;;;;;;;47.29;12.96;97308.38;10539919;28;20051;-71
2023/08/25 11:38:07;;;;;;;2.17;0.70;;;;;;;44.17;15.17;97303.47;10524699;28;20051;-73
2023/08/25 11:43:32;;;;;;;4.15;0.80;;;;;;;41.09;17.97;97311.25;10510830;28;20109;-71
2023/08/25 11:48:55;;;;;;;4.22;0.90;;;;;;;38.88;21.15;97316.50;10524559;28;20040;-72
2023/08/25 11:54:16;;;;;;;5.30;1.10;;;;;;;37.48;21.32;97335.78;10524314;28;20051;-72
2023/08/25 11:59:48;;;;;;;1.92;0.98;;;;;;;35.92;24.39;97343.22;10524260;28;20517;-71
2023/08/25 12:05:09;;;;;;;3.10;1.20;;;;;;;34.57;26.98;97327.16;10539745;28;20044;-70
2023/08/25 12:10:35;;;;;;;2.83;1.30;;;;;;;33.44;29.20;97344.47;10513931;28;20459;-68
2023/08/25 12:15:56;;;;;;;4.60;1.58;;;;;;;33.13;29.94;97347.53;10518078;28;20448;-69
2023/08/25 12:21:18;;;;;;;3.42;1.00;;;;;;;33.07;30.09;97336.13;10517862;28;20060;-69
2023/08/25 12:26:40;;;;;;;3.28;1.15;;;;;;;32.80;30.68;97341.91;10532400;28;20067;-69
2023/08/25 12:32:04;;;;;;;3.92;1.52;;;;;;;32.14;32.64;97334.22;10531434;28;20058;-69
2023/08/25 12:37:26;;;;;;;7.32;1.40;;;;;;;31.69;34.33;97337.44;10546192;28;20137;-68
2023/08/25 12:42:51;;;;;;;5.45;1.13;;;;;;;31.80;34.50;97344.41;10518208;28;20453;-69
2023/08/25 12:48:12;;;;;;;5.20;1.23;;;;;;;32.00;35.00;97351.88;10545582;28;20052;-68
2023/08/25 12:53:35;;;;;;;3.00;1.55;;;;;;;31.95;34.22;97355.63;10545637;28;20064;-68
2023/08/25 12:58:56;;;;;;;4.13;1.17;;;;;;;31.77;34.55;97345.22;10530005;28;20090;-69
2023/08/25 13:04:16;;;;;;;4.00;1.53;;;;;;;31.65;34.05;97336.81;10544925;28;20054;-69
2023/08/25 13:09:37;;;;;;;3.77;1.20;;;;;;;31.95;34.46;97318.13;10545042;28;20051;-69
2023/08/25 13:14:58;;;;;;;3.20;1.00;;;;;;;32.76;34.17;97301.59;10515660;28;20273;-69
2023/08/25 13:20:20;;;;;;;;;;;;;;;33.05;33.36;97307.28;10514670;28;20454;-68
2023/08/25 13:25:41;;;;;;;4.18;1.40;;;;;;;33.01;33.06;97321.88;10544278;28;19978;-69
2023/08/25 13:31:02;;;;;;;3.88;1.38;;;;;;;32.58;33.75;97351.91;10515608;28;20386;-68
2023/08/25 13:36:23;;;;;;;3.35;1.25;;;;;;;32.01;34.45;97343.94;10528285;28;20051;-69
2023/08/25 13:41:44;;;;;;;;;;;;;;;31.84;35.51;97346.47;10543904;28;20048;-68
2023/08/25 13:47:07;;;;;;;2.88;1.38;;;;;;;31.72;35.54;97326.56;10528902;28;19924;-68
2023/08/25 13:52:28;;;;;;;4.53;1.35;;;;;;;31.48;36.57;97324.94;10514178;28;20070;-68
2023/08/25 13:57:50;;;;;;;5.82;1.50;;;;;;;31.16;36.58;97332.78;10542920;28;20043;-69
2023/08/25 14:03:12;;;;;;;7.40;1.83;;;;;;;31.12;36.46;97343.69;10542568;28;20052;-68
2023/08/25 14:08:33;;;;;;;5.88;1.60;;;;;;;31.11;36.62;97339.41;10542808;28;20071;-69
2023/08/25 14:13:53;;;;;;;2.07;1.03;;;;;;;31.51;34.96;97338.56;10527202;28;20084;-68
2023/08/25 14:19:14;;;;;;;4.90;1.30;;;;;;;31.53;34.28;97329.16;10526916;28;20105;-68
2023/08/25 14:24:36;;;;;;;3.80;1.50;;;;;;;31.58;33.90;97316.78;10542092;28;20401;-68
2023/08/25 14:29:56;;;;;;;3.08;1.38;;;;;;;31.59;33.77;97341.25;10512452;28;20270;-68
2023/08/25 14:35:20;;;;;;;5.63;1.58;;;;;;;31.43;33.75;97335.84;10526275;28;20047;-68
2023/08/25 14:40:45;;;;;;;2.53;1.40;;;;;;;31.44;34.27;97339.44;10541763;28;20362;-69
2023/08/25 14:46:09;;;;;;;3.90;1.40;;;;;;;31.49;34.31;97344.38;10512386;28;20063;-69
2023/08/25 14:51:30;;;;;;;2.75;1.30;;;;;;;31.51;33.97;97332.78;10540866;28;20055;-69
2023/08/25 14:56:51;;;;;;;2.40;1.30;;;;;;;31.52;34.40;97337.09;10540926;28;20115;-68
2023/08/25 15:02:17;;;;;;;5.73;1.23;;;;;;;31.62;34.31;97357.06;10540665;28;20226;-68
2023/08/25 15:07:38;;;;;;;3.00;1.23;;;;;;;31.69;33.73;97343.22;10540463;28;20071;-69
2023/08/25 15:12:59;;;;;;;3.17;1.17;;;;;;;31.54;34.14;97328.38;10525749;28;20040;-69
2023/08/25 15:18:20;;;;;;;5.50;1.63;;;;;;;31.11;34.50;97325.00;10539602;28;20173;-68
2023/08/25 15:23:40;;;;;;;4.33;1.27;;;;;;;30.81;35.10;97320.56;10540366;28;20055;-69
2023/08/25 15:29:01;;;;;;;6.43;1.48;;;;;;;30.83;35.42;97321.22;10510768;28;20048;-68
2023/08/25 15:34:22;;;;;;;5.30;1.43;;;;;;;30.74;35.44;97322.84;10539548;28;20486;-68
2023/08/25 15:39:43;;;;;;;3.63;1.48;;;;;;;30.77;35.79;97332.84;10524170;28;20044;-69
2023/08/25 15:45:05;;;;;;;3.67;1.27;;;;;;;30.62;36.43;97328.81;10538743;28;20059;-68
2023/08/25 15:50:26;;;;;;;3.15;1.15;;;;;;;30.54;36.35;97352.69;10539961;28;20068;-68
2023/08/25 15:55:47;;;;;;;5.87;1.20;;;;;;;30.52;37.21;97340.50;10538919;28;20056;-68
2023/08/25 16:01:08;;;;;;;3.85;1.38;;;;;;;30.43;36.93;97326.25;10539088;28;20040;-68
2023/08/25 16:06:30;;;;;;;4.32;1.30;;;;;;;30.07;37.34;97326.88;10510290;28;20036;-68
2023/08/25 16:11:51;;;;;;;2.88;1.20;;;;;;;29.74;37.28;97318.75;10523855;28;20040;-68
2023/08/25 16:17:11;;;;;;;2.77;1.13;;;;;;;29.36;37.73;97311.38;10523917;28;20478;-67
2023/08/25 16:22:32;;;;;;;6.63;1.42;;;;;;;29.00;38.11;97304.63;10509522;28;20056;-68
2023/08/25 16:27:53;;;;;;;2.73;1.10;;;;;;;28.68;38.73;97317.19;10496127;28;20044;-67
2023/08/25 16:33:14;;;;;;;2.75;1.38;;;;;;;28.44;38.77;97315.28;10538438;28;20047;-67
2023/08/25 16:38:36;;;;;;;2.22;1.30;;;;;;;28.34;38.98;97314.69;10538638;28;20405;-67
2023/08/25 16:43:57;;;;;;;4.40;1.10;;;;;;;28.19;39.83;97309.06;10538160;28;20054;-68
2023/08/25 16:49:20;;;;;;;6.30;1.27;;;;;;;28.05;40.16;97311.31;10523262;28;20515;-68
2023/08/25 16:54:43;;;;;;;3.53;1.35;;;;;;;27.85;40.69;97298.56;10523356;28;20040;-67
2023/08/25 17:00:04;;;;;;;3.45;1.58;;;;;;;27.77;40.83;97312.25;10545300;28;20062;-68
2023/08/25 17:05:26;;;;;;;5.10;1.25;;;;;;;27.59;41.65;97293.00;10545467;28;20047;-67
2023/08/25 17:10:47;;;;;;;3.47;1.48;;;;;;;27.42;42.65;97303.88;10529992;28;20052;-68
2023/08/25 17:16:08;;;;;;;9.77;1.40;;;;;;;27.30;43.24;97301.06;10529858;28;20040;-67
2023/08/25 17:21:29;;;;;;;2.88;1.20;;;;;;;27.30;43.55;97310.38;10515289;28;20056;-67
2023/08/25 17:26:50;;;;;;;6.40;0.80;;;;;;;27.32;43.08;97306.81;10544413;28;20064;-67
2023/08/25 17:32:11;;;;;;;2.92;0.88;;;;;;;27.44;42.67;97300.28;10544618;28;20044;-68
2023/08/25 17:37:32;;;;;;;3.70;0.80;;;;;;;27.36;41.98;97295.31;10528827;28;20055;-67
2023/08/25 17:42:53;;;;;;;2.83;0.80;;;;;;;27.20;41.20;97309.72;10528966;28;20390;-68
2023/08/25 17:48:14;;;;;;;3.28;0.98;;;;;;;26.98;41.35;97311.22;10514559;28;20044;-67
2023/08/25 17:53:35;;;;;;;4.65;0.70;;;;;;;26.81;40.93;97321.31;10514110;28;20055;-68
2023/08/25 17:58:55;;;;;;;1.50;0.60;;;;;;;26.63;41.06;97322.06;10543454;28;20134;-67
2023/08/25 18:04:16;;;;;;;3.72;1.00;;;;;;;26.42;41.45;97324.28;10542846;28;20048;-67
2023/08/25 18:09:39;;;;;;;1.33;0.40;;;;;;;26.27;41.37;97331.44;10527315;28;20040;-67
2023/08/25 18:14:59;;;;;;;3.40;0.70;;;;;;;26.12;42.04;97333.56;10542330;28;20482;-67
2023/08/25 18:20:20;;;;;;;1.92;0.70;;;;;;;25.95;42.54;97343.56;10542022;28;20059;-67
2023/08/25 18:25:41;;;;;;;1.30;0.80;;;;;;;25.80;42.50;97350.72;10498910;28;20064;-67
2023/08/25 18:31:06;;;;;;;1.95;0.75;;;;;;;25.66;43.09;97349.22;10542067;28;20069;-67
2023/08/25 18:36:27;;;;;;;1.90;0.63;;;;;;;25.61;43.36;97370.69;10541574;28;20124;-67
2023/08/25 18:41:48;;;;;;;1.88;0.70;;;;;;;25.53;43.39;97372.78;10541345;28;20531;-68
2023/08/25 18:47:08;;;;;;;2.47;0.95;;;;;;;25.48;43.83;97386.38;10526292;28;20402;-68
2023/08/25 18:52:29;;;;;;;2.35;0.85;;;;;;;25.43;43.85;97381.34;10525898;28;20565;-67
2023/08/25 18:57:50;;;;;;;2.85;0.80;;;;;;;25.36;44.55;97387.03;10525750;28;20070;-67
2023/08/25 19:03:20;;;;;;;2.20;1.00;;;;;;;25.32;44.71;97401.28;10540414;28;20040;-68
2023/08/25 19:08:42;;;;;;;5.88;1.30;;;;;;;25.32;44.50;97404.16;10525495;28;20044;-67
2023/08/25 19:14:04;;;;;;;2.28;0.70;;;;;;;25.29;44.91;97405.56;10540105;28;20051;-67
2023/08/25 19:19:26;;;;;;;3.92;1.00;;;;;;;25.29;44.98;97417.00;10539644;28;20458;-67
2023/08/25 19:24:47;;;;;;;2.45;0.88;;;;;;;25.21;44.83;97411.25;10525172;28;20109;-67
2023/08/25 19:30:08;;;;;;;3.25;0.80;;;;;;;25.09;45.26;97411.19;10539610;28;20083;-68
2023/08/25 19:35:29;;;;;;;2.80;0.88;;;;;;;24.98;45.62;97410.38;10539456;28;20040;-67
2023/08/25 19:40:50;;;;;;;2.72;0.90;;;;;;;24.83;45.99;97401.03;10539208;28;20123;-67
2023/08/25 19:46:10;;;;;;;1.48;0.90;;;;;;;24.72;46.19;97388.13;10539280;28;20115;-67
2023/08/25 19:51:31;;;;;;;2.55;0.98;;;;;;;24.65;46.75;97389.50;10538909;28;20120;-67
2023/08/25 19:56:52;;;;;;;2.78;1.17;;;;;;;24.59;46.94;97392.31;10539128;28;20538;-68
2023/08/25 20:02:13;;;;;;;3.65;1.20;;;;;;;24.48;47.90;97387.97;10538825;28;20128;-67
2023/08/25 20:07:34;;;;;;;2.58;1.40;;;;;;;24.39;48.02;97392.16;10538852;28;20116;-67
2023/08/25 20:12:56;;;;;;;2.15;1.40;;;;;;;24.22;48.75;97391.28;10523899;28;20074;-67
2023/08/25 20:18:20;;;;;;;2.60;1.30;;;;;;;24.11;49.26;97386.94;10509575;28;20519;-67
2023/08/25 20:23:41;;;;;;;2.65;1.20;;;;;;;24.04;49.20;97386.19;10538596;28;20048;-68
2023/08/25 20:29:02;;;;;;;3.55;1.00;;;;;;;24.06;49.33;97391.16;10539162;28;20093;-67
2023/08/25 20:34:22;;;;;;;5.43;1.15;;;;;;;24.02;49.64;97396.81;10546479;28;20111;-67
2023/08/25 20:39:43;;;;;;;2.08;1.20;;;;;;;23.97;49.97;97373.28;10546321;28;20143;-68
2023/08/25 20:45:04;;;;;;;4.20;1.05;;;;;;;23.95;49.91;97376.13;10545989;28;20067;-68
2023/08/25 20:50:25;;;;;;;1.85;0.98;;;;;;;23.95;50.05;97376.13;10545881;28;20458;-67
2023/08/25 20:55:46;;;;;;;3.03;1.20;;;;;;;23.92;50.12;97360.41;10530442;28;20120;-68
2023/08/25 21:01:08;;;;;;;2.20;1.17;;;;;;;23.87;50.50;97347.53;10530502;28;20036;-68
2023/08/25 21:06:32;;;;;;;2.63;1.30;;;;;;;23.83;50.53;97353.91;10545214;28;20071;-67
2023/08/25 21:11:53;;;;;;;4.15;1.20;;;;;;;23.80;50.67;97351.75;10516800;28;20063;-68
2023/08/25 21:17:14;;;;;;;4.70;1.10;;;;;;;23.73;50.79;97356.66;10545502;28;20529;-67
2023/08/25 21:22:35;;;;;;;4.25;1.10;;;;;;;23.65;51.25;97345.91;10544340;28;20082;-67
2023/08/25 21:27:56;;;;;;;4.72;1.23;;;;;;;23.58;51.50;97337.97;10529353;28;20145;-67
2023/08/25 21:33:18;;;;;;;2.88;1.17;;;;;;;23.44;51.53;97338.53;10529152;28;20115;-67
2023/08/25 21:38:39;;;;;;;3.67;1.38;;;;;;;23.30;51.94;97329.84;10543937;28;20068;-67
2023/08/25 21:44:00;;;;;;;2.60;1.20;;;;;;;23.21;52.27;97316.94;10542743;28;20119;-67
2023/08/25 21:49:21;;;;;;;4.13;1.42;;;;;;;23.13;52.73;97323.97;10543970;28;20166;-67
2023/08/25 21:54:42;;;;;;;2.28;1.30;;;;;;;23.09;53.02;97317.53;10543381;28;20436;-67
2023/08/25 22:00:07;;;;;;;2.13;1.27;;;;;;;23.05;53.17;97312.50;10527684;28;20048;-67
2023/08/25 22:05:27;;;;;;;5.40;1.38;;;;;;;23.01;53.06;97323.84;10542722;28;20481;-67
2023/08/25 22:10:48;;;;;;;5.30;1.23;;;;;;;22.95;53.52;97309.53;10527388;28;20064;-67
2023/08/25 22:16:09;;;;;;;2.42;1.20;;;;;;;22.85;53.78;97312.97;10527237;28;20109;-67
2023/08/25 22:21:30;;;;;;;3.95;1.45;;;;;;;22.72;54.12;97310.66;10527012;28;20076;-67
2023/08/25 22:26:50;;;;;;;2.97;1.50;;;;;;;22.61;54.45;97318.31;10541831;28;20128;-67
2023/08/25 22:32:12;;;;;;;2.92;1.15;;;;;;;22.53;55.07;97316.09;10541716;28;20134;-66
2023/08/25 22:37:33;;;;;;;2.33;1.38;;;;;;;22.49;55.68;97323.84;10512474;28;20115;-67
2023/08/25 22:42:53;;;;;;;1.88;1.27;;;;;;;22.47;56.24;97327.38;10541498;28;20067;-67
2023/08/25 22:48:16;;;;;;;2.95;1.50;;;;;;;22.41;56.27;97337.94;10541176;28;20119;-67
2023/08/25 22:53:36;;;;;;;2.27;1.40;;;;;;;22.37;56.78;97330.06;10541008;28;20462;-68
2023/08/25 22:58:57;;;;;;;1.75;1.45;;;;;;;22.28;57.40;97322.81;10540593;28;20131;-67
2023/08/25 23:04:18;;;;;;;2.55;1.58;;;;;;;22.23;57.70;97332.72;10541238;28;20162;-67
2023/08/25 23:09:39;;;;;;;4.05;1.58;;;;;;;22.22;57.67;97320.63;10525447;28;20172;-68
2023/08/25 23:15:09;;;;;;;2.92;1.60;;;;;;;22.21;57.86;97318.47;10540712;28;20119;-67
2023/08/25 23:20:30;;;;;;;3.33;1.42;;;;;;;22.13;57.46;97301.28;10540170;28;20072;-67
2023/08/25 23:25:51;;;;;;;4.45;1.35;;;;;;;22.16;58.06;97311.28;10524763;28;20132;-67
2023/08/25 23:31:13;;;;;;;3.90;1.63;;;;;;;22.19;58.07;97309.91;10539675;28;20070;-67
2023/08/25 23:36:33;;;;;;;2.70;1.35;;;;;;;22.20;58.00;97312.06;10524350;28;20052;-67
2023/08/25 23:41:56;;;;;;;2.10;1.30;;;;;;;22.12;58.03;97306.25;10539543;28;20111;-67
2023/08/25 23:47:17;;;;;;;3.65;1.50;;;;;;;22.08;58.15;97291.25;10511357;28;20565;-67
2023/08/25 23:52:38;;;;;;;2.25;1.52;;;;;;;22.07;58.26;97289.81;10509999;28;20079;-67
2023/08/25 23:57:58;;;;;;;2.67;1.50;;;;;;;22.07;58.00;97292.66;10524174;28;20048;-67
